Regionale Übersicht

METAR und TAF

Dienstag, 24. November 2020 - 01:55 Uhr

Beobachtete horizontale meteorologische Sicht an ausgewählten Flughäfen. Die vollständigen METARs und Flugwettervorhersagen (TAFs) sind verfügbar, wenn Sie auf das entsprechende Symbol mit der ICAO-Flughafenkennung klicken.

  • Luxemburg (ELLX)

    Taf: TAF ELLX 232300Z 2400/2506 VRB02KT 1500 BR BKN005 BECMG 2402/2405 0500 FG BKN003 BECMG 2410/2412 14005KT 3000 BR BKN010 BECMG 2421/2423 0800 FG BKN002=

    Metar: METAR ELLX 240020Z AUTO 03003KT 0050 R24/0250N FG VV000 05/05 Q1027 NOSIG=

  • Spangdahlem (ETAD)

    Taf: TAF ETAD 232058Z 2321/2503 VRB04KT 5000 BR OVC004 QNH3035INS BECMG 2400/2401 VRB04KT 1600 BR OVC002 QNH3027INS TEMPO 2403/2410 0800 FG VV001 BECMG 2410/2411 VRB05KT 3200 BR OVC002 QNH3022INS BECMG 2413/2414 16007KT 9999 NSW OVC020 QNH3006INS TX06/2414Z TN04/2403Z LAST NO AMDS AFT 2321=

    Metar: METAR ETAD NIL=

  • Metz/Nancy (LFJL)

    Taf: TAF LFJL 232300Z 2400/2424 VRB03KT 6000 FEW015 SCT060 TEMPO 2400/2424 2000 BR OVC005 PROB40 TEMPO 2400/2412 0400 FG VV///=

    Metar: METAR LFJL 240030Z AUTO VRB03KT 0400 0300 R22/0325N R04/0650U FG VV/// 01/00 Q1027 NOSIG=

  • Saarbrücken/Intl (EDDR)

    Taf: TAF AMD EDDR 240024Z 2400/2424 03004KT 6000 SCT002 PROB40 TEMPO 2400/2409 2500 BCFG SCT002 BKN006 PROB30 TEMPO 2400/2408 0300 FG BKN001 BECMG 2406/2408 09006KT TEMPO 2409/2412 BKN010 BECMG 2417/2419 VRB03KT=

    Metar: METAR EDDR 240020Z 07005KT 8000 FEW001 02/02 Q1027=

  • Hahn (EDFH)

    Taf: TAF EDFH 232300Z 2400/2424 15004KT 0700 FG BKN003 PROB30 TEMPO 2400/2408 0200 FG BKN001 BECMG 2408/2410 2000 BR BKN005 BECMG 2410/2412 6000 BKN010 TEMPO 2411/2416 15009KT BECMG 2412/2414 SCT010 BECMG 2423/2424 4500 BR BKN010=

    Metar: METAR EDFH 240020Z 14010KT 0300 R21/0300N FG VV/// 01/01 Q1027=

  • Ramstein (ETAR)

    Taf: TAF AMD ETAR 231857Z 2318/2424 VRB06KT 0400 FG VV001 QNH3028INS TEMPO 2407/2411 6000 BR SCT001 BKN015 BECMG 2410/2411 24009KT 9999 NSW FEW001 SCT015 QNH3020INS BECMG 2417/2418 VRB06KT 6000 BR SCT001 BKN015 QNH3020INS TX07/2413Z TN01/2403Z=

    Metar: nil

  • Nancy/Ochey (LFSO)

    Taf: TAF LFSO 232000Z NIL=

    Metar: METAR LFSO 240030Z AUTO 00000KT 4800 BR NSC 03/03 Q1027=

  • Liège Bierset (EBLG)

    Taf: TAF EBLG 232300Z 2400/2506 19007KT 9999 BKN015 TEMPO 2400/2408 3000 BR BKN004 PROB30 TEMPO 2401/2407 0800 FG BKN002 BECMG 2408/2410 SCT020=

    Metar: METAR EBLG 240020Z 17008KT 9999 FEW008 07/06 Q1026 TEMPO BKN008=

  • Saint-Dizier (LFSI)

    Taf: TAF LFSI 232000Z 2321/2421 VRB02KT 2000 BR NSC BECMG 2322/2324 0800 FG BKN002 TEMPO 2403/2408 0300 FG VV/// BECMG 2409/2411 6000 NSW BKN008 BECMG 2412/2414 SCT015=

    Metar: METAR LFSI 240030Z AUTO 00000KT 8000 NSC 00/00 Q1027=

  • Maastricht/Zuid Limburg (EHBK)

    Taf: TAF EHBK 232309Z 2400/2506 19008KT 9999 SCT030 PROB30 2401/2408 4000 BR BKN006=

    Metar: METAR EHBK 240025Z AUTO 18009KT 160V220 9999 NCD 08/06 Q1026=

  • Köln/Köln-Bonn (EDDK)

    Taf: TAF EDDK 232300Z 2400/2506 13007KT 9999 FEW030 PROB30 TEMPO 2422/2506 BKN010=

    Metar: METAR EDDK 240020Z 11006KT 080V140 9999 SCT037 04/03 Q1028 NOSIG=

  • Charleroi (EBCI)

    Taf: TAF EBCI 232300Z 2400/2506 21006KT 9999 BKN006 TEMPO 2400/2408 3000 BR BKN003 PROB40 TEMPO 2401/2407 0800 FG BKN002 BECMG 2408/2410 SCT020=

    Metar: METAR EBCI 240020Z 18008KT 9000 BKN005 BKN018 08/07 Q1026 NOSIG=

  • Wiesbaden (ETOU)

    Taf: TAF AMD ETOU 232100Z 2321/2503 VRB06KT 5000 BR OVC005 QNH3041INS BECMG 2403/2404 VRB06KT 0800 FG VV002 QNH3035INS BECMG 2410/2411 15006KT 4800 BR OVC010 QNH3030INS BECMG 2412/2413 16006KT 8000 BR BKN020 QNH3022INS TX06/2412Z TN05/2402Z LAST NO AMDS AFT 2321 NEXT 2405=

    Metar: METAR ETOU NIL=

  • Karlsruhe/Baden-Baden (EDSB)

    Taf: TAF EDSB 232300Z 2400/2424 VRB03KT 3500 BCFG BKN012 PROB40 TEMPO 2400/2410 0500 FG BKN001 BECMG 2410/2412 6000 BKN015 BECMG 2422/2424 4500 BR BKN014=

    Metar: METAR EDSB 240020Z AUTO 34006KT 310V010 2500 1300 R21/1900D BKN002/// BKN004/// BKN052/// 05/04 Q1028=

  • Chalons/Vatry (LFOK)

    Taf: TAF LFOK 232300Z 2400/2424 18006KT 7000 SCT030 TEMPO 2400/2404 1500 BR PROB40 2400/2406 0300 FG VV/// BECMG 2409/2412 BKN007 BECMG 2412/2414 NSC TEMPO 2416/2418 3000 BR=

    Metar: METAR LFOK 240030Z AUTO 18003KT 7000 NSC 04/04 Q1027 TEMPO 0300 FG VV///=

  • Frankfurt/Main (EDDF)

    Taf: TAF EDDF 232300Z 2400/2506 07003KT 6000 BKN010 PROB40 TEMPO 2400/2409 2500 BCFG BKN004 PROB30 TEMPO 2400/2407 0500 FG BKN001 BECMG 2410/2412 14005KT PROB30 TEMPO 2411/2419 SCT015 BECMG 2417/2419 06003KT BECMG 2420/2422 4000 BR PROB40 TEMPO 2422/2506 2000 BCFG BKN004=

    Metar: METAR EDDF 240020Z 11004KT 7000 FEW003 BKN010 06/05 Q1029 TEMPO 4500 BCFG BKN009=

  • Brüssel (EBBR)

    Taf: TAF EBBR 232300Z 2400/2506 21006KT 9999 BKN012 TEMPO 2400/2408 4000 BR BKN005 BECMG 2408/2410 SCT020=

    Metar: METAR EBBR 240020Z 21006KT 180V240 9999 FEW009 BKN011 BKN021 09/07 Q1026 TEMPO SCT011 BKN021=

  • Düsseldorf (EDDL)

    Taf: TAF EDDL 232300Z 2400/2506 15011KT 9999 BKN030=

    Metar: METAR EDDL 240020Z 16009KT 9999 BKN030 06/05 Q1027 NOSIG=

  • Luxeuil (LFSX)

    Taf: TAF LFSX 232000Z NIL=

    Metar: METAR LFSX 240030Z AUTO VRB01KT 6000 NSC M03/M03 Q1027=

  • Eindhoven (EHEH)

    Taf: TAF EHEH 232307Z 2400/2506 20006KT 9999 SCT007 BKN010 PROB40 TEMPO 2400/2407 4000 BR SCT004 OVC007 PROB30 2402/2406 2000 BKN004 BECMG 2407/2410 SCT020 BKN040=

    Metar: METAR EHEH 240025Z AUTO 19007KT 9999 BKN009 OVC010 09/08 Q1026 GRN=

  • Niederrhein (EDLV)

    Taf: TAF AMD EDLV 232353Z 2323/2418 CNL=

    Metar: METAR EDLV 240020Z NIL=

  • Dortmund/Wickede (EDLW)

    Taf: TAF EDLW 232300Z NIL=

    Metar: METAR EDLW 240020Z AUTO 18008KT 9999 // NCD 05/04 Q1027=

  • Stuttgart/Echterdingen (EDDS)

    Taf: TAF AMD EDDS 240046Z 2400/2424 VRB03KT 4000 BCFG SCT003 BKN020 TEMPO 2400/2409 2000 BCFG BKN003 PROB40 TEMPO 2400/2407 0100 FG BKN001 BECMG 2407/2409 6000 TEMPO 2411/2414 15005KT BECMG 2422/2424 3500 BCFG=

    Metar: METAR EDDS 240020Z 32003KT 0150 R25/P2000N FG SCT001 01/00 Q1028=

  • Basel-Mühlhausen (LFSB)

    Taf: TAF LFSB 232300Z 2400/2424 VRB03KT 8000 NSC BECMG 2402/2405 4000 BR TEMPO 2404/2410 OVC004 PROB30 TEMPO 2404/2409 0400 FG VV/// TEMPO 2410/2417 10010KT 9999 NSW TEMPO 2417/2424 BKN005=

    Metar: METAR LFSB 240030Z AUTO 23003KT 7000 SCT025 M01/M01 Q1028 BECMG 4000 BR=

  • Lille (LFQQ)

    Taf: TAF LFQQ 232300Z 2400/2506 VRB03KT 7000 OVC007 TEMPO 2400/2410 2000 DZ BR OVC002 PROB30 2400/2408 0300 FG VV/// BECMG 2408/2410 18010KT 9999 NSW OVC007 BECMG 2415/2417 NSC=

    Metar: METAR LFQQ 240030Z AUTO 19006KT 1500 1300 R26/2400U R08/1800D BR VV/// 08/07 Q1026 TEMPO 0300 FG=

  • Paris/Charles de Gaulle (LFPG)

    Taf: TAF LFPG 232300Z 2400/2506 14005KT 9999 FEW035 TX09/2414Z TN03/2506Z BECMG 2400/2402 4000 BR TEMPO 2402/2410 0500 FG VV/// BECMG 2410/2412 9999 NSW=

    Metar: METAR LFPG 240030Z 14004KT 4500 BR FEW024 07/06 Q1027 NOSIG=

  • Paderborn/Lippstadt (EDLP)

    Taf: TAF EDLP 232300Z NIL=

    Metar: METAR EDLP NIL=

  • Paris/Le Bourget (LFPB)

    Taf: TAF LFPB 232300Z 2400/2424 14005KT 9999 FEW035 BECMG 2400/2402 4000 BR TEMPO 2402/2410 0500 FG VV/// BECMG 2410/2412 9999 NSW=

    Metar: METAR LFPB 240030Z AUTO 10002KT 7000 NSC 06/06 Q1027 TEMPO 0500 FG VV///=

  • Rotterdam (EHRD)

    Taf: TAF EHRD 232314Z 2400/2506 18010KT 7000 BKN010 BECMG 2400/2402 4000 BR BKN005 PROB40 2401/2409 2000 BKN003 BECMG 2407/2410 7000 NSW BKN040 PROB30 2410/2413 BKN006 BECMG 2411/2414 CAVOK=

    Metar: METAR EHRD 240025Z AUTO 19008KT 6000 NSC 07/07 Q1025 BECMG 4000 BR TEMPO BKN009=

  • Zürich/Kloten (LSZH)

    Taf: TAF LSZH 240000Z NIL=

    Metar: METAR LSZH 240020Z NIL=

  • Oostende/Intl (EBOS)

    Taf: TAF EBOS 232300Z 2400/2506 18009KT 3000 BR BKN008 TEMPO 2400/2408 0500 FG BKN002 BECMG 2408/2410 9999 NSW BKN020 PROB30 TEMPO 2500/2506 0800 FG=

    Metar: METAR EBOS 240020Z 19008KT 0800 R08/1900N R26/P2000N FG OVC002 06/06 Q1026 TEMPO 0900 FG=

  • Paris/Orly (LFPO)

    Taf: TAF LFPO 232300Z 2400/2506 16004KT 6000 SCT040 BECMG 2400/2402 4000 BR BKN005 TEMPO 2403/2408 0500 FG VV/// BECMG 2410/2412 CAVOK=

    Metar: METAR LFPO 240030Z 17003KT 4000 BR NSC 07/06 Q1027 NOSIG=

  • Beauvais (LFOB)

    Taf: TAF LFOB 232300Z 2400/2424 VRB02KT 4000 BR BKN025 PROB30 TEMPO 2400/2406 0300 FG VV/// BECMG 2406/2408 1500 BR OVC002 BECMG 2409/2412 16012KT 8000 NSW OVC007 BECMG 2412/2415 NSC=

    Metar: METAR LFOB 240030Z AUTO 00000KT 0450 0300 R30/0500D R12/0350N FG VV/// 04/04 Q1026 TEMPO 0300 FG=

  • Münster/Intl (EDDG)

    Taf: TAF EDDG 232300Z 2400/2424 17004KT 9999 SCT030 PROB30 TEMPO 2401/2410 4000 BR BKN008 BECMG 2408/2411 18009KT BECMG 2414/2417 14004KT=

    Metar: METAR EDDG 240020Z VRB02KT 9999 FEW018 BKN048 02/01 Q1026 NOSIG=

  • Illesheim (ETIK)

    Taf: TAF ETIK 232308Z 2323/2505 VRB06KT 0400 FZFG BKN004 600004 QNH3034INS BECMG 2406/2407 VRB06KT 1200 BR BKN010 QNH3033INS BECMG 2408/2409 14006KT 6000 BR BKN020 QNH3031INS BECMG 2409/2410 14009KT 9999 NSW BKN025 QNH3018INS BECMG 2421/2422 VRB06KT 6000 BR BKN020 QNH3013INS TX08/2413Z TNM02/2405Z=

    Metar: METAR ETIK 232356Z AUTO 00000KT 0400 R24/0400V0500 FZFG VV001 M01/M01 A3042 RMK AO2 FZDZB10E23FZDZB24E38 SLP318 P0000 60000 T10091009 10040 21013 58004 $=

  • Duebendorf (LSMD)

    Taf: TAF AMD LSMD 232338Z 2323/2423 VRB03KT 4000 BR FEW010 BECMG 2400/2403 BKN012 BECMG 2403/2406 BKN008 BECMG 2409/2412 6000 SCT012 BECMG 2416/2419 3000 BR BECMG 2419/2421 1500 PRFG BECMG 2420/2423 0500 FZFG VV002=

    Metar: METAR LSMD 240020Z AUTO 00000KT 5000NDV BR FEW001 M01/M02 Q1028 RMK=

  • Villacoublay (LFPV)

    Taf: TAF LFPV 232000Z 2321/2421 16003KT 9999 OVC045 TX09/2321Z TN03/2407Z BECMG 2402/2404 0300 FG VV/// BECMG 2411/2413 8000 NSW=

    Metar: METAR LFPV 240030Z AUTO 21004KT 7000 0700 R27/0800D R09/P2000 BCFG NSC 07/06 Q1026 BECMG 0300 FG VV///=

  • Payerne (LSMP)

    Taf: TAF LSMP 231625Z 2317/2423 VRB03KT 4500 BR NSC PROB40 TEMPO 2401/2408 1200 BCFG BKN006 BECMG 2410/2412 8000=

    Metar: METAR LSMP 240020Z AUTO 21001KT 0650NDV R23/P2000N R05/0550N BR NCD M01/M02 Q1028 RMK=

  • Amsterdam/Schipol (EHAM)

    Taf: TAF EHAM 232314Z 2400/2506 18010KT CAVOK BECMG 2401/2404 4000 BR BKN005 PROB40 2403/2409 2000 BKN003 BECMG 2408/2411 7000 NSW BKN040 PROB30 2411/2414 BKN006 BECMG 2412/2415 CAVOK=

    Metar: METAR EHAM 240025Z 19008KT 9000 FEW009 05/04 Q1024 BECMG 7000 TEMPO BKN007=

  • Emmen (LSME)

    Taf: TAF AMD LSME 232002Z 2320/2423 VRB02KT CAVOK BECMG 2320/2322 4000 BR BECMG 2322/2324 2000 BCFG BECMG 2324/2402 0600 FZFG VV002 TEMPO 2402/2407 0300 FZFG VV001 BECMG 2407/2410 2500 BR BKN004 BECMG 2410/2413 4500 BR BKN008 BECMG 2413/2415 6000 SCT012 BECMG 2418/2421 4500 BR NSC=

    Metar: METAR LSME 240020Z AUTO VRB01KT 6000NDV NCD M01/M02 Q1028 RMK=

  • Friedrichshafen (EDNY)

    Taf: TAF AMD EDNY 240000Z 2400/2424 05003KT 6000 NSC BECMG 2400/2403 0500 FG VV001 BECMG 2408/2410 4000 BR OVC004 BECMG 2410/2412 7000 SCT008 BECMG 2418/2421 0300 FG VV001 TEMPO 2421/2424 0100 FZFG=

    Metar: METAR EDNY 240020Z AUTO VRB02KT 0750 0450 R24/P2000N // BKN003/// M02/M02 Q1028=

  • Alpnach (LSMA)

    Taf: TAF LSMA 231625Z 2317/2423 VRB02KT CAVOK PROB40 2323/2407 4000 BR NSC PROB30 2402/2406 2000 BCFG NSC=

    Metar: METAR LSMA 240020Z AUTO 21003KT 9999NDV NCD M02/M04 Q1028 RMK=

  • Meiringen (LSMM)

    Taf: TAF LSMM 231625Z 2317/2423 VRB02KT CAVOK PROB40 2323/2407 4000 BR NSC PROB30 2402/2407 0400 FZFG VV002=

    Metar: METAR LSMM 240020Z AUTO VRB02KT 9999NDV NCD M03/M04 Q1028 RMK=

  • Nürnberg (EDDN)

    Taf: TAF EDDN 232300Z 2400/2424 13003KT 0100 FG VV001 PROB30 TEMPO 2403/2408 FZFG BECMG 2408/2410 1200 BR OVC003 BECMG 2410/2412 6000 BKN012 TEMPO 2413/2417 SCT012 BECMG 2418/2421 0600 FG VV001=

    Metar: METAR COR EDDN 240020Z 11004KT 0100 R28/0450N FG OVC001 02/02 Q1030=

  • Rouen (LFOP)

    Taf: TAF LFOP 232300Z NIL=

    Metar: METAR LFOP 240030Z AUTO 16003KT 9999 OVC040 08/08 Q1026=

  • Evreux (LFOE)

    Taf: TAF LFOE 232000Z 2321/2421 19006KT 9999 SCT030 BKN045 BECMG 2323/2402 2000 BR TEMPO 2404/2408 VRB03KT 0500 BCFG PROB40 TEMPO 2404/2408 0300 FG BECMG 2408/2409 9999 NSW SCT005 BECMG 2409/2411 CAVOK=

    Metar: METAR LFOE 240030Z AUTO 14002KT 4300 1100 R22/1300D BR VV/// 07/06 Q1026 BECMG 2000 BR SCT030 BKN045=

  • Erfurt/Bindersleben (EDDE)

    Taf: TAF EDDE 232300Z 2400/2424 20008KT CAVOK PROB30 TEMPO 2401/2408 VRB03KT 0100 FZFG BKN001 PROB30 TEMPO 2408/2410 3000 BR BKN005=

    Metar: METAR EDDE 240020Z 19008KT CAVOK M00/M02 Q1028=